Lang, Canada
Current Conditions -  °F | °C
As of 5:00 AM on Friday 28 Nov 2014 (Local Time) from CYQR Reporting Station
Light Snow Light Snow  
Wind Chill: -8°   Ceiling: 3700
Heat Index: 10°   Visibility: 10mi
Dew Point:   Wind: 20mph
Humidity: 85%   Direction: 110°ESE
Pressure: 29.78"   Gusts: NA
Location:  49.92°N, 104.37°W
Report Text: CYQR 281100Z 11017KT 10SM -SN DRSN OVC037 M12/M14 A2978 RMK SC8 SLP128
Loading
Personal Weather Stations






























Interactive Weather Map New forecast layout! Learn more

10-Day Weather Forecast

Advertisements
Track Severe Weather on mobile